Time;durP1;ratioP1;P1;durP2;ratioP2;P2;SDS_P1;SDS_P2;PMS_P1;PMS_P2;Temp;Humidity;BMP_temperature;BMP_pressure;BME280_temperature;BME280_humidity;BME280_pressure;Samples;Min_cycle;Max_cycle;Signal;HPM_P1;HPM_P2
2022/11/07 00:01:20;;;;;;;26.98;16.70;;;1.40;99.90;;;;;;5010660;28;20081;-87
2022/11/07 00:03:46;;;;;;;26.77;18.30;;;1.40;99.90;;;;;;5010638;28;20034;-84
2022/11/07 00:06:12;;;;;;;28.80;18.05;;;1.50;99.90;;;;;;5001477;28;20077;-87
2022/11/07 00:08:37;;;;;;;28.73;18.10;;;1.50;99.90;;;;;;4998171;28;20317;-84
2022/11/07 00:11:05;;;;;;;27.75;19.05;;;1.60;99.90;;;;;;5015471;28;20010;-86
2022/11/07 00:13:31;;;;;;;28.77;17.92;;;1.70;99.90;;;;;;4998067;28;20372;-84
2022/11/07 00:16:01;;;;;;;27.48;16.23;;;1.70;99.90;;;;;;5027531;28;20557;-88
2022/11/07 00:18:27;;;;;;;29.15;17.25;;;1.70;99.90;;;;;;5031366;28;20018;-88
2022/11/07 00:20:53;;;;;;;29.55;18.45;;;1.60;99.90;;;;;;5015805;28;20402;-89
2022/11/07 00:23:19;;;;;;;27.83;18.08;;;1.60;99.90;;;;;;5031283;28;20027;-91
2022/11/07 00:25:45;;;;;;;24.13;16.48;;;1.60;99.90;;;;;;5018807;28;20105;-90
2022/11/07 00:28:11;;;;;;;27.75;18.63;;;1.70;99.90;;;;;;5020494;28;20064;-90
2022/11/07 00:30:37;;;;;;;27.75;17.95;;;1.60;99.90;;;;;;5021605;28;20100;-92
2022/11/07 00:33:03;;;;;;;29.00;19.83;;;1.70;99.90;;;;;;5034315;28;20026;-90
2022/11/07 00:35:29;;;;;;;29.13;17.52;;;1.70;99.90;;;;;;5029247;28;20033;-90
2022/11/07 00:37:55;;;;;;;27.98;18.38;;;1.70;99.90;;;;;;5019763;28;20052;-90
2022/11/07 00:40:21;;;;;;;33.45;18.40;;;1.60;99.90;;;;;;5018083;28;20030;-91
2022/11/07 00:42:47;;;;;;;28.92;17.95;;;1.70;99.90;;;;;;5018244;28;20033;-87
2022/11/07 00:45:13;;;;;;;27.65;15.77;;;1.70;99.90;;;;;;4997577;28;20030;-85
2022/11/07 00:47:39;;;;;;;25.50;17.42;;;1.70;99.90;;;;;;5019337;28;20022;-87
2022/11/07 00:50:05;;;;;;;25.73;17.25;;;1.70;99.90;;;;;;5019732;28;20483;-87
2022/11/07 00:52:31;;;;;;;30.27;17.52;;;1.80;99.90;;;;;;4994148;28;20054;-90
2022/11/07 00:54:58;;;;;;;24.08;16.20;;;1.70;99.90;;;;;;4993619;28;20038;-87
2022/11/07 00:57:23;;;;;;;26.92;17.25;;;1.70;99.90;;;;;;4997521;28;20025;-85
2022/11/07 00:59:49;;;;;;;26.50;17.42;;;1.70;99.90;;;;;;4996120;28;20026;-87
2022/11/07 01:02:15;;;;;;;27.10;16.80;;;1.80;99.90;;;;;;4995373;28;20102;-86
2022/11/07 01:07:25;;;;;;;24.45;16.13;;;1.80;99.90;;;;;;5004085;28;20029;-87
2022/11/07 01:09:51;;;;;;;26.92;17.40;;;1.80;99.90;;;;;;4995949;28;20117;-88
2022/11/07 01:12:17;;;;;;;26.35;17.35;;;1.70;99.90;;;;;;4995489;28;20052;-87
2022/11/07 01:14:43;;;;;;;29.52;17.02;;;1.70;99.90;;;;;;4995372;28;20065;-87
2022/11/07 01:17:09;;;;;;;28.65;18.65;;;1.70;99.90;;;;;;4996716;28;20030;-86
2022/11/07 01:19:34;;;;;;;29.50;16.60;;;1.80;99.90;;;;;;5011222;28;20030;-86
2022/11/07 01:22:00;;;;;;;29.55;19.13;;;1.80;99.90;;;;;;4995068;28;20102;-86
2022/11/07 01:24:26;;;;;;;25.77;16.80;;;1.80;99.90;;;;;;5000517;28;20032;-86
2022/11/07 01:26:52;;;;;;;27.80;18.88;;;1.80;99.90;;;;;;5017095;28;20022;-89
2022/11/07 01:29:19;;;;;;;31.92;17.05;;;1.90;99.90;;;;;;4993052;28;20029;-87
2022/11/07 01:31:45;;;;;;;25.02;16.45;;;2.00;99.90;;;;;;5007497;28;20113;-87
2022/11/07 01:34:11;;;;;;;27.20;17.03;;;2.00;99.90;;;;;;4993264;28;20130;-88
2022/11/07 01:36:37;;;;;;;24.90;16.63;;;2.00;99.90;;;;;;4995575;28;20496;-88
2022/11/07 01:39:04;;;;;;;26.95;16.13;;;2.00;99.90;;;;;;4998026;28;20029;-88
2022/11/07 01:41:35;;;;;;;27.55;17.55;;;2.00;99.90;;;;;;4995691;28;20081;-87
2022/11/07 01:44:20;;;;;;;23.52;16.15;;;2.00;99.90;;;;;;5005741;28;20101;-89
2022/11/07 01:46:47;;;;;;;22.58;16.10;;;2.10;99.90;;;;;;4990514;28;20108;-88
2022/11/07 01:49:22;;;;;;;24.00;15.52;;;2.10;99.90;;;;;;4987694;28;20510;-87
2022/11/07 01:51:57;;;;;;;25.10;16.15;;;2.10;99.90;;;;;;5006987;28;20113;-89
2022/11/07 01:54:28;;;;;;;24.90;15.93;;;2.10;99.90;;;;;;5001981;28;20050;-89
2022/11/07 01:56:57;;;;;;;24.75;15.88;;;2.10;99.90;;;;;;5037429;28;20081;-88
2022/11/07 01:59:27;;;;;;;27.95;17.23;;;2.10;99.90;;;;;;5027371;28;20038;-89
2022/11/07 02:01:54;;;;;;;28.35;16.08;;;2.20;99.90;;;;;;5013730;28;20026;-91
2022/11/07 02:04:26;;;;;;;29.38;16.65;;;2.20;99.90;;;;;;5022437;28;20051;-90
2022/11/07 02:07:12;;;;;;;23.85;16.05;;;2.20;99.90;;;;;;5006865;28;20026;-89
2022/11/07 02:09:38;;;;;;;26.10;17.25;;;2.20;99.90;;;;;;5027566;28;20086;-84
2022/11/07 02:12:04;;;;;;;24.88;16.20;;;2.30;99.90;;;;;;5046727;28;20014;-85
2022/11/07 02:14:30;;;;;;;23.08;15.75;;;2.30;99.90;;;;;;5028499;28;20191;-89
2022/11/07 02:16:56;;;;;;;22.88;14.35;;;2.30;99.90;;;;;;5042110;28;20026;-91
2022/11/07 02:19:39;;;;;;;22.70;15.13;;;2.30;99.90;;;;;;5010541;28;20049;-91
2022/11/07 02:22:29;;;;;;;24.35;16.77;;;2.20;99.90;;;;;;4998565;28;20097;-90
2022/11/07 02:24:58;;;;;;;21.45;15.10;;;2.20;99.90;;;;;;5016553;28;20379;-87
2022/11/07 02:27:27;;;;;;;26.10;16.25;;;2.30;99.90;;;;;;5017625;28;20095;-90
2022/11/07 02:30:28;;;;;;;23.05;15.05;;;2.30;99.90;;;;;;5009788;28;20028;-90
2022/11/07 02:32:54;;;;;;;22.63;15.48;;;2.30;99.90;;;;;;4973867;28;20080;-92
2022/11/07 02:35:41;;;;;;;26.77;16.70;;;2.20;99.90;;;;;;5015267;28;20529;-88
2022/11/07 02:38:19;;;;;;;23.67;15.70;;;2.30;99.90;;;;;;5033893;28;20033;-87
2022/11/07 02:40:49;;;;;;;23.80;14.75;;;2.30;99.90;;;;;;5026940;28;20034;-88
2022/11/07 02:43:18;;;;;;;23.02;15.43;;;2.30;99.90;;;;;;4997161;28;20022;-87
2022/11/07 02:45:46;;;;;;;24.60;14.45;;;2.30;99.90;;;;;;5026453;28;20025;-88
2022/11/07 02:48:12;;;;;;;23.05;14.27;;;2.30;99.90;;;;;;5014846;28;20133;-90
2022/11/07 02:50:40;;;;;;;25.13;15.82;;;2.30;99.90;;;;;;5014720;28;20176;-87
2022/11/07 02:53:05;;;;;;;22.83;14.75;;;2.20;99.90;;;;;;5001878;28;20047;-88
2022/11/07 02:55:31;;;;;;;21.65;13.82;;;2.30;99.90;;;;;;5004464;28;20041;-87
2022/11/07 02:57:57;;;;;;;24.00;16.10;;;2.30;99.90;;;;;;5005811;28;20019;-87
2022/11/07 03:00:23;;;;;;;21.20;14.23;;;2.30;99.90;;;;;;4986533;28;20049;-88
2022/11/07 03:02:49;;;;;;;22.02;13.25;;;2.30;99.90;;;;;;4994656;28;20372;-88
2022/11/07 03:05:17;;;;;;;22.80;14.55;;;2.30;99.90;;;;;;5010519;28;20113;-88
2022/11/07 03:07:44;;;;;;;25.70;14.68;;;2.30;99.90;;;;;;4994298;28;20029;-88
2022/11/07 03:10:11;;;;;;;21.08;14.68;;;2.30;99.90;;;;;;5006716;28;20038;-87
2022/11/07 03:12:37;;;;;;;22.73;14.67;;;2.30;99.90;;;;;;5009703;28;20026;-88
2022/11/07 03:15:05;;;;;;;24.08;17.02;;;2.30;99.90;;;;;;5014045;28;20205;-88
2022/11/07 03:17:33;;;;;;;23.15;15.60;;;2.40;99.90;;;;;;5026108;28;20054;-87
2022/11/07 03:19:59;;;;;;;26.27;15.00;;;2.40;99.90;;;;;;4998827;28;20033;-88
2022/11/07 03:22:25;;;;;;;22.35;14.13;;;2.40;99.90;;;;;;5010006;28;20023;-89
2022/11/07 03:24:51;;;;;;;22.52;14.70;;;2.40;99.90;;;;;;5006336;28;20368;-91
2022/11/07 03:27:18;;;;;;;22.40;15.05;;;2.40;99.90;;;;;;5010297;28;20420;-89
2022/11/07 03:29:44;;;;;;;24.43;15.03;;;2.40;99.90;;;;;;4993440;28;20080;-88
2022/11/07 03:32:10;;;;;;;22.23;15.38;;;2.50;99.90;;;;;;5006784;28;20029;-88
2022/11/07 03:34:36;;;;;;;23.33;15.73;;;2.50;99.90;;;;;;4993439;28;20104;-89
2022/11/07 03:37:03;;;;;;;21.08;12.68;;;2.50;99.90;;;;;;4997614;28;20018;-88
2022/11/07 03:39:29;;;;;;;19.25;14.05;;;2.40;99.90;;;;;;5004572;28;20042;-88
2022/11/07 03:41:54;;;;;;;19.08;13.27;;;2.40;99.90;;;;;;4995231;28;20218;-88
2022/11/07 03:44:21;;;;;;;20.42;14.35;;;2.40;99.90;;;;;;4998838;28;20041;-89
2022/11/07 03:46:47;;;;;;;23.63;14.18;;;2.40;99.90;;;;;;5010293;28;20046;-87
2022/11/07 03:49:12;;;;;;;22.98;14.27;;;2.50;99.90;;;;;;4997030;28;20030;-90
2022/11/07 03:51:38;;;;;;;19.92;12.80;;;2.50;99.90;;;;;;5001247;28;20026;-89
2022/11/07 03:54:04;;;;;;;22.70;15.05;;;2.50;99.90;;;;;;5035775;28;20046;-90
2022/11/07 03:56:30;;;;;;;21.70;13.88;;;2.50;99.90;;;;;;5036662;28;20026;-89
2022/11/07 03:58:56;;;;;;;22.35;15.13;;;2.60;99.90;;;;;;5021366;28;20032;-85
2022/11/07 04:01:22;;;;;;;19.73;13.20;;;2.60;99.90;;;;;;5013141;28;20093;-87
2022/11/07 04:03:48;;;;;;;21.23;14.20;;;2.70;99.90;;;;;;4996081;28;20442;-89
2022/11/07 04:06:14;;;;;;;19.65;12.38;;;2.70;99.90;;;;;;5013044;28;20054;-86
2022/11/07 04:08:40;;;;;;;21.33;12.85;;;2.70;99.90;;;;;;5007937;28;20034;-86
2022/11/07 04:11:06;;;;;;;18.75;12.13;;;2.70;99.90;;;;;;5019468;28;20059;-88
2022/11/07 04:19:19;;;;;;;22.42;15.20;;;2.70;99.90;;;;;;4949350;29;20028;-87
2022/11/07 04:21:45;;;;;;;20.48;14.15;;;2.60;99.90;;;;;;4975804;28;20058;-89
2022/11/07 04:24:11;;;;;;;14.77;10.57;;;2.70;99.90;;;;;;5036320;28;20141;-89
2022/11/07 04:29:22;;;;;;;19.38;13.05;;;2.60;99.90;;;;;;5024633;28;20101;-86
2022/11/07 04:31:47;;;;;;;18.83;12.40;;;2.60;99.90;;;;;;5021643;28;20033;-86
2022/11/07 04:34:13;;;;;;;21.20;12.70;;;2.60;99.90;;;;;;5036633;28;20018;-87
2022/11/07 04:36:39;;;;;;;18.40;11.63;;;2.60;99.90;;;;;;5033974;28;20030;-88
2022/11/07 04:39:05;;;;;;;19.90;12.60;;;2.60;99.90;;;;;;5035746;28;20029;-88
2022/11/07 04:41:31;;;;;;;23.02;13.30;;;2.60;99.90;;;;;;5039433;28;20026;-94
2022/11/07 04:44:00;;;;;;;19.17;12.18;;;2.60;99.90;;;;;;5002247;28;20121;-91
2022/11/07 04:46:28;;;;;;;22.27;14.07;;;2.60;99.90;;;;;;5018651;28;20075;-91
2022/11/07 04:48:54;;;;;;;21.00;13.32;;;2.60;99.90;;;;;;4979552;28;20035;-89
2022/11/07 04:51:21;;;;;;;20.65;13.68;;;2.70;99.90;;;;;;4967735;28;20134;-88
2022/11/07 04:53:47;;;;;;;19.63;12.63;;;2.70;99.90;;;;;;4991651;28;20133;-91
2022/11/07 04:56:13;;;;;;;19.23;12.35;;;2.70;99.90;;;;;;4976826;28;20050;-88
2022/11/07 04:58:39;;;;;;;19.08;12.00;;;2.60;99.90;;;;;;4986639;28;20490;-89
2022/11/07 05:01:05;;;;;;;20.23;12.50;;;2.60;99.90;;;;;;4983856;28;20030;-92
2022/11/07 05:03:31;;;;;;;19.05;11.98;;;2.70;99.90;;;;;;4984957;28;20030;-91
2022/11/07 05:05:57;;;;;;;18.15;11.25;;;2.70;99.90;;;;;;4987687;28;20023;-89
2022/11/07 05:08:23;;;;;;;19.33;13.07;;;2.70;99.90;;;;;;4980896;28;20093;-91
2022/11/07 05:10:48;;;;;;;19.90;13.15;;;2.70;99.90;;;;;;4962785;28;20029;-87
2022/11/07 05:13:14;;;;;;;19.95;11.50;;;2.70;99.90;;;;;;4977222;28;20065;-89
2022/11/07 05:15:40;;;;;;;17.30;10.75;;;2.70;99.90;;;;;;4960177;28;20042;-89
2022/11/07 05:18:09;;;;;;;22.50;13.23;;;2.70;99.90;;;;;;4972063;28;20023;-88
2022/11/07 05:20:38;;;;;;;15.23;12.23;;;2.70;99.90;;;;;;4958182;28;20103;-86
2022/11/07 05:23:20;;;;;;;14.82;10.43;;;2.70;99.90;;;;;;4958578;28;20485;-87
2022/11/07 05:25:48;;;;;;;22.02;11.65;;;2.80;99.90;;;;;;4994770;28;20022;-86
2022/11/07 05:28:22;;;;;;;17.88;11.57;;;2.80;99.90;;;;;;5012433;28;20536;-87
2022/11/07 05:30:49;;;;;;;13.00;9.15;;;2.80;99.90;;;;;;4994764;28;20050;-87
2022/11/07 05:33:16;;;;;;;15.20;10.27;;;2.80;99.90;;;;;;4994226;28;20031;-87
2022/11/07 05:35:43;;;;;;;18.23;11.75;;;2.80;99.90;;;;;;4994427;28;20109;-87
2022/11/07 05:38:09;;;;;;;17.67;11.30;;;2.90;99.90;;;;;;4994501;28;20020;-87
2022/11/07 05:40:37;;;;;;;17.00;10.63;;;2.90;99.90;;;;;;4997668;28;20062;-87
2022/11/07 05:43:04;;;;;;;;;;;3.00;99.90;;;;;;5005496;28;20006;-86
2022/11/07 05:45:30;;;;;;;19.23;10.30;;;2.90;99.90;;;;;;5012331;28;20012;-87
2022/11/07 05:48:01;;;;;;;16.10;10.60;;;2.90;99.90;;;;;;5002857;28;20078;-87
2022/11/07 05:50:28;;;;;;;15.50;10.75;;;2.90;99.90;;;;;;5008039;28;20011;-89
2022/11/07 05:52:55;;;;;;;18.75;11.40;;;2.90;99.90;;;;;;5026471;28;20112;-87
2022/11/07 05:55:22;;;;;;;14.00;9.23;;;2.90;99.90;;;;;;5020143;28;20046;-88
2022/11/07 05:57:47;;;;;;;15.45;10.40;;;3.00;99.90;;;;;;5016838;28;20263;-88
2022/11/07 06:00:15;;;;;;;14.98;10.75;;;3.00;99.90;;;;;;5011193;28;20369;-86
2022/11/07 06:02:41;;;;;;;14.48;10.25;;;3.00;99.90;;;;;;4981477;28;20035;-90
2022/11/07 06:05:08;;;;;;;15.50;10.98;;;3.00;99.90;;;;;;4975546;28;20165;-90
2022/11/07 06:07:36;;;;;;;19.08;12.18;;;3.00;99.90;;;;;;4975191;28;20042;-90
2022/11/07 06:10:02;;;;;;;15.88;10.65;;;3.00;99.90;;;;;;4975779;28;20030;-89
2022/11/07 06:12:31;;;;;;;18.75;10.23;;;3.10;99.90;;;;;;4979708;28;20073;-88
2022/11/07 06:14:57;;;;;;;19.90;11.40;;;3.20;99.90;;;;;;4960989;28;20045;-90
2022/11/07 06:17:23;;;;;;;18.80;12.48;;;3.20;99.90;;;;;;4987542;28;20059;-89
2022/11/07 06:19:49;;;;;;;13.45;8.20;;;3.20;99.90;;;;;;4989911;28;20230;-91
2022/11/07 06:22:15;;;;;;;15.68;9.45;;;3.20;99.90;;;;;;4981347;28;20086;-90
2022/11/07 06:24:41;;;;;;;13.95;9.52;;;3.30;99.90;;;;;;5006631;28;20034;-90
2022/11/07 06:27:07;;;;;;;15.90;10.55;;;3.30;99.90;;;;;;5010773;28;20033;-91
2022/11/07 06:29:33;;;;;;;18.25;11.95;;;3.30;99.90;;;;;;5016579;28;20091;-94
2022/11/07 06:31:58;;;;;;;16.92;11.73;;;3.30;99.90;;;;;;5012680;28;20070;-90
2022/11/07 06:34:25;;;;;;;20.50;11.10;;;3.30;99.90;;;;;;5034821;28;20034;-92
2022/11/07 06:36:55;;;;;;;17.92;10.57;;;3.40;99.90;;;;;;5040890;28;20022;-92
2022/11/07 06:39:21;;;;;;;16.80;10.90;;;3.40;99.90;;;;;;5041654;28;20053;-90
2022/11/07 06:41:48;;;;;;;17.85;11.18;;;3.40;99.90;;;;;;5023765;28;20045;-93
2022/11/07 06:44:14;;;;;;;16.15;10.75;;;3.50;99.90;;;;;;5011251;28;20030;-93
2022/11/07 06:46:41;;;;;;;18.30;12.48;;;3.40;99.90;;;;;;5012586;28;20022;-92
2022/11/07 06:49:10;;;;;;;17.13;11.48;;;3.40;99.90;;;;;;5022617;28;20022;-88
2022/11/07 06:51:36;;;;;;;17.15;10.50;;;3.40;99.90;;;;;;5047573;28;20034;-91
2022/11/07 06:54:03;;;;;;;17.00;10.95;;;3.40;99.90;;;;;;5030066;28;20045;-89
2022/11/07 06:56:28;;;;;;;15.25;10.73;;;3.50;99.90;;;;;;5006249;28;20391;-89
2022/11/07 06:58:57;;;;;;;21.00;13.05;;;3.40;99.90;;;;;;5021964;28;20026;-89
2022/11/07 07:01:23;;;;;;;15.05;10.13;;;3.50;99.90;;;;;;5038634;28;20022;-88
2022/11/07 07:03:49;;;;;;;17.85;11.05;;;3.60;99.90;;;;;;5024701;28;20480;-88
2022/11/07 07:06:16;;;;;;;16.92;10.05;;;3.60;99.90;;;;;;5014166;28;20018;-88
2022/11/07 07:08:43;;;;;;;16.15;9.18;;;3.60;99.90;;;;;;5015174;28;20026;-87
2022/11/07 07:11:12;;;;;;;15.93;9.55;;;3.70;99.90;;;;;;4994277;28;20029;-88
2022/11/07 07:13:41;;;;;;;16.00;9.70;;;3.70;99.90;;;;;;4997134;28;20038;-87
2022/11/07 07:16:07;;;;;;;13.98;9.60;;;3.80;99.90;;;;;;5032478;28;20041;-88
2022/11/07 07:18:34;;;;;;;14.57;9.95;;;3.80;99.90;;;;;;5020316;28;20018;-88
2022/11/07 07:21:05;;;;;;;13.33;9.03;;;3.80;99.90;;;;;;5000316;28;20036;-92
2022/11/07 07:23:33;;;;;;;13.50;9.68;;;3.80;99.90;;;;;;5020281;28;20025;-90
2022/11/07 07:26:01;;;;;;;13.32;9.05;;;3.80;99.90;;;;;;4999508;28;20022;-91
2022/11/07 07:28:27;;;;;;;13.70;9.07;;;3.90;99.90;;;;;;4998977;28;20069;-92
2022/11/07 07:31:06;;;;;;;16.02;9.70;;;3.90;99.90;;;;;;5019546;28;20056;-90
2022/11/07 07:33:35;;;;;;;15.75;10.32;;;4.00;99.90;;;;;;5009819;28;20021;-91
2022/11/07 07:36:01;;;;;;;17.40;11.02;;;4.00;99.90;;;;;;5006933;28;20427;-91
2022/11/07 07:38:27;;;;;;;13.63;9.27;;;4.00;99.90;;;;;;4999876;28;20112;-90
2022/11/07 07:40:52;;;;;;;17.40;10.15;;;4.10;99.90;;;;;;5015808;28;20548;-92
2022/11/07 07:43:18;;;;;;;17.08;11.30;;;4.10;99.90;;;;;;5007236;28;20390;-90
2022/11/07 07:45:44;;;;;;;20.35;11.40;;;4.10;99.90;;;;;;5017877;28;20025;-91
2022/11/07 07:48:10;;;;;;;14.55;10.50;;;4.20;99.90;;;;;;5023114;28;20028;-91
2022/11/07 07:51:06;;;;;;;22.50;11.93;;;4.20;99.70;;;;;;5020397;28;20042;-91
2022/11/07 07:53:33;;;;;;;22.08;13.57;;;4.20;99.80;;;;;;4998254;28;20037;-93
2022/11/07 07:56:04;;;;;;;21.30;14.85;;;4.10;99.70;;;;;;5018941;28;20082;-91
2022/11/07 07:58:31;;;;;;;17.20;10.60;;;4.20;99.70;;;;;;5023280;28;20029;-91
2022/11/07 08:01:00;;;;;;;17.27;10.23;;;4.20;99.70;;;;;;5017725;28;20061;-91
2022/11/07 08:03:29;;;;;;;15.40;10.23;;;4.20;99.70;;;;;;5015846;28;20046;-91
2022/11/07 08:05:57;;;;;;;14.18;9.55;;;4.20;99.60;;;;;;5017222;28;20076;-92
2022/11/07 08:08:24;;;;;;;16.48;9.40;;;4.30;99.60;;;;;;5019009;28;20029;-91
2022/11/07 08:10:59;;;;;;;16.98;10.52;;;4.30;99.50;;;;;;5018620;28;20030;-90
2022/11/07 08:13:31;;;;;;;17.58;10.13;;;4.40;99.40;;;;;;5033584;28;20037;-89
2022/11/07 08:16:08;;;;;;;19.25;9.63;;;4.40;99.30;;;;;;5028541;28;20140;-91
2022/11/07 08:18:38;;;;;;;13.30;9.93;;;4.40;99.30;;;;;;5027738;28;20041;-91
2022/11/07 08:21:05;;;;;;;15.85;10.10;;;4.40;99.30;;;;;;5022516;28;20093;-89
2022/11/07 08:23:31;;;;;;;15.82;10.48;;;4.40;99.20;;;;;;5008134;28;20096;-90
2022/11/07 08:26:06;;;;;;;17.58;10.68;;;4.40;99.30;;;;;;5014152;28;20034;-91
2022/11/07 08:28:35;;;;;;;19.00;13.05;;;4.40;99.20;;;;;;5008661;28;20522;-92
2022/11/07 08:31:05;;;;;;;14.93;10.57;;;4.40;99.30;;;;;;5010147;28;20033;-90
2022/11/07 08:33:32;;;;;;;15.90;10.50;;;4.40;99.20;;;;;;5031442;28;20049;-90
2022/11/07 08:35:59;;;;;;;18.98;12.52;;;4.40;99.00;;;;;;5027163;28;20049;-92
2022/11/07 08:38:26;;;;;;;16.65;11.73;;;4.40;98.90;;;;;;5013006;28;20089;-92
2022/11/07 08:40:54;;;;;;;19.15;12.05;;;4.50;99.00;;;;;;5034770;28;20026;-90
2022/11/07 08:43:20;;;;;;;;;;;4.50;98.80;;;;;;5021681;28;20018;-90
2022/11/07 08:45:47;;;;;;;19.48;11.88;;;4.50;98.90;;;;;;5028270;28;20285;-92
2022/11/07 08:48:14;;;;;;;19.13;13.73;;;4.50;99.00;;;;;;5039586;28;20032;-89
2022/11/07 08:50:40;;;;;;;16.40;11.37;;;4.60;99.00;;;;;;5009167;28;20061;-91
2022/11/07 08:53:07;;;;;;;20.02;11.85;;;4.60;98.80;;;;;;5020281;28;20299;-91
2022/11/07 08:55:33;;;;;;;16.55;10.23;;;4.70;98.90;;;;;;5024187;28;20061;-89
2022/11/07 08:58:01;;;;;;;18.75;9.88;;;4.80;98.70;;;;;;5026394;28;20033;-90
2022/11/07 09:00:27;;;;;;;13.48;8.77;;;4.80;98.60;;;;;;5039863;28;20029;-92
2022/11/07 09:02:53;;;;;;;16.25;10.05;;;4.80;98.40;;;;;;5027337;28;20026;-90
2022/11/07 09:05:19;;;;;;;17.88;10.88;;;4.70;98.30;;;;;;5037570;28;20042;-86
2022/11/07 09:07:45;;;;;;;15.68;10.18;;;4.60;98.30;;;;;;5006771;28;20037;-88
2022/11/07 09:10:12;;;;;;;13.43;9.73;;;4.60;98.50;;;;;;5056386;28;20037;-90
2022/11/07 09:12:45;;;;;;;17.50;11.63;;;4.50;98.40;;;;;;5024653;28;20102;-91
2022/11/07 09:15:12;;;;;;;19.17;10.55;;;4.50;98.60;;;;;;5022584;28;20299;-93
2022/11/07 09:17:41;;;;;;;14.57;10.15;;;4.60;98.50;;;;;;5005895;28;20087;-92
2022/11/07 09:20:09;;;;;;;16.13;10.63;;;4.60;98.50;;;;;;5008045;28;20040;-92
2022/11/07 09:22:36;;;;;;;;;;;4.60;98.50;;;;;;5010039;28;20026;-91
2022/11/07 09:25:02;;;;;;;19.35;10.80;;;4.50;98.50;;;;;;5003840;28;19936;-91
2022/11/07 09:27:28;;;;;;;15.15;9.80;;;4.50;98.60;;;;;;5042210;28;20108;-92
2022/11/07 09:29:54;;;;;;;17.48;11.73;;;4.50;98.70;;;;;;5035781;28;20057;-92
2022/11/07 09:32:23;;;;;;;18.10;13.23;;;4.50;98.80;;;;;;5032060;28;20049;-92
2022/11/07 09:34:49;;;;;;;19.45;12.60;;;4.60;98.80;;;;;;5007542;28;20068;-93
2022/11/07 09:37:15;;;;;;;20.13;11.48;;;4.60;98.70;;;;;;5023230;28;20041;-95
2022/11/07 09:39:41;;;;;;;18.60;11.48;;;4.70;98.70;;;;;;5016108;28;20065;-93
2022/11/07 09:42:43;;;;;;;18.10;10.95;;;4.70;98.50;;;;;;5023490;28;20097;-92
2022/11/07 09:45:12;;;;;;;19.92;11.43;;;4.70;98.40;;;;;;5046575;28;20048;-92
2022/11/07 09:47:46;;;;;;;18.10;11.75;;;4.80;98.50;;;;;;5051316;28;20057;-91
2022/11/07 09:50:18;;;;;;;17.08;11.77;;;4.80;98.40;;;;;;5021905;28;20025;-91
2022/11/07 09:53:02;;;;;;;19.45;11.98;;;4.70;98.30;;;;;;5004707;28;20050;-92
2022/11/07 09:55:50;;;;;;;16.52;10.85;;;4.70;98.40;;;;;;5003277;28;20034;-94
2022/11/07 09:58:32;;;;;;;17.17;11.77;;;4.60;98.50;;;;;;5013001;28;20683;-92
2022/11/07 10:01:06;;;;;;;21.40;14.48;;;4.60;98.60;;;;;;5012009;28;20026;-90
2022/11/07 10:03:38;;;;;;;19.35;12.77;;;4.50;98.60;;;;;;4989197;28;20053;-90
2022/11/07 10:06:30;;;;;;;20.52;13.73;;;4.50;98.80;;;;;;5030462;28;20028;-90
2022/11/07 10:09:02;;;;;;;19.45;13.30;;;4.50;98.80;;;;;;5021266;28;20605;-92
2022/11/07 10:11:46;;;;;;;21.10;12.85;;;4.50;98.80;;;;;;5019193;28;20396;-94
2022/11/07 10:14:26;;;;;;;23.17;14.85;;;4.40;98.90;;;;;;5013205;28;20427;-91
2022/11/07 10:17:18;;;;;;;22.83;14.38;;;4.40;99.20;;;;;;5030850;28;20069;-91
2022/11/07 10:20:06;;;;;;;22.58;14.45;;;4.40;99.10;;;;;;5005372;28;20041;-91
2022/11/07 10:22:38;;;;;;;22.38;14.02;;;4.40;99.10;;;;;;5030771;28;20057;-92
2022/11/07 10:25:29;;;;;;;20.80;14.65;;;4.50;99.20;;;;;;5017839;28;20545;-91
2022/11/07 10:28:13;;;;;;;22.23;14.73;;;4.50;99.20;;;;;;4986487;28;20022;-90
2022/11/07 10:30:42;;;;;;;25.70;15.77;;;4.50;99.10;;;;;;5010827;28;20030;-92
2022/11/07 10:33:28;;;;;;;25.85;15.38;;;4.50;99.10;;;;;;5014632;28;20030;-93
2022/11/07 10:36:01;;;;;;;21.92;13.93;;;4.40;99.20;;;;;;4997425;28;20034;-91
2022/11/07 10:38:32;;;;;;;20.38;12.13;;;4.40;99.10;;;;;;5025012;28;20096;-92
2022/11/07 10:40:58;;;;;;;22.88;14.55;;;4.40;99.10;;;;;;5015157;28;20400;-91
2022/11/07 10:43:35;;;;;;;22.80;14.75;;;4.30;99.20;;;;;;4998879;28;20022;-90
2022/11/07 10:46:20;;;;;;;27.73;15.30;;;4.30;99.40;;;;;;5005316;28;20095;-90
2022/11/07 10:49:00;;;;;;;19.77;14.52;;;4.40;99.40;;;;;;5022918;28;20038;-90
2022/11/07 10:51:38;;;;;;;22.00;15.20;;;4.50;99.50;;;;;;5003927;28;20036;-92
2022/11/07 10:54:06;;;;;;;19.67;13.18;;;4.50;99.40;;;;;;5022899;28;20045;-91
2022/11/07 10:57:18;;;;;;;21.30;13.55;;;4.50;99.20;;;;;;5018768;28;20034;-91
2022/11/07 10:59:56;;;;;;;19.65;13.52;;;4.40;99.20;;;;;;4993901;28;20030;-92
2022/11/07 11:02:25;;;;;;;23.85;15.98;;;4.50;99.30;;;;;;5036001;28;20022;-91
2022/11/07 11:04:56;;;;;;;22.38;12.40;;;4.50;99.30;;;;;;5043185;28;20097;-91
2022/11/07 11:07:25;;;;;;;23.20;15.52;;;4.50;99.30;;;;;;5011049;28;20057;-91
2022/11/07 11:09:55;;;;;;;22.50;13.45;;;4.50;99.20;;;;;;5023300;28;20026;-93
2022/11/07 11:12:29;;;;;;;20.80;13.10;;;4.50;99.20;;;;;;5019642;28;20034;-92
2022/11/07 11:15:24;;;;;;;22.98;15.20;;;4.50;99.20;;;;;;5020138;28;20038;-89
2022/11/07 11:18:18;;;;;;;23.52;14.88;;;4.60;99.20;;;;;;5009142;28;20026;-90
2022/11/07 11:21:05;;;;;;;23.23;14.90;;;4.60;99.20;;;;;;5005797;28;20014;-91
2022/11/07 11:23:36;;;;;;;27.77;16.88;;;4.60;99.20;;;;;;5041884;28;20038;-91
2022/11/07 11:26:07;;;;;;;21.50;12.60;;;4.60;99.20;;;;;;5016616;28;20042;-88
2022/11/07 11:28:41;;;;;;;34.10;15.05;;;4.60;99.10;;;;;;5048829;28;20093;-91
2022/11/07 11:31:23;;;;;;;25.73;17.65;;;4.50;99.20;;;;;;5027848;28;20033;-91
2022/11/07 11:33:57;;;;;;;21.05;14.52;;;4.50;99.50;;;;;;5036930;28;20077;-91
2022/11/07 11:36:28;;;;;;;22.80;15.13;;;4.50;99.40;;;;;;5020060;28;20058;-90
2022/11/07 11:38:54;;;;;;;20.42;12.70;;;4.50;99.40;;;;;;5031642;28;20037;-91
2022/11/07 11:41:52;;;;;;;24.75;15.57;;;4.40;99.30;;;;;;5022326;28;20041;-90
2022/11/07 11:44:25;;;;;;;19.88;11.93;;;4.50;99.40;;;;;;5034177;28;20046;-91
2022/11/07 11:47:20;;;;;;;25.42;14.52;;;4.40;99.30;;;;;;5006293;28;20088;-93
2022/11/07 11:49:52;;;;;;;26.35;14.63;;;4.50;99.40;;;;;;5007389;28;20454;-90
2022/11/07 11:52:22;;;;;;;19.58;13.82;;;4.50;99.30;;;;;;5001913;28;20399;-91
2022/11/07 11:54:55;;;;;;;21.90;13.35;;;4.50;99.40;;;;;;4987129;28;20051;-92
2022/11/07 11:57:31;;;;;;;19.70;13.55;;;4.50;99.30;;;;;;5008794;28;20046;-92
2022/11/07 12:00:08;;;;;;;20.77;15.05;;;4.50;99.30;;;;;;4990997;28;20050;-92
2022/11/07 12:02:37;;;;;;;24.85;14.10;;;4.50;99.40;;;;;;4994620;28;20172;-91
2022/11/07 12:05:18;;;;;;;25.40;15.07;;;4.50;99.30;;;;;;4992451;28;20104;-90
2022/11/07 12:08:10;;;;;;;25.02;15.40;;;4.50;99.30;;;;;;4989392;28;20163;-94
2022/11/07 12:10:45;;;;;;;23.75;15.40;;;4.50;99.30;;;;;;4980024;28;20030;-90
2022/11/07 12:13:29;;;;;;;25.70;15.95;;;4.50;99.20;;;;;;4986307;28;20108;-91
2022/11/07 12:16:16;;;;;;;22.38;14.57;;;4.50;99.30;;;;;;4993992;28;20038;-94
2022/11/07 12:19:12;;;;;;;27.08;16.30;;;4.40;99.50;;;;;;4994605;28;20407;-92
2022/11/07 12:21:50;;;;;;;22.45;14.52;;;4.50;99.50;;;;;;4990517;28;20044;-92
2022/11/07 12:24:42;;;;;;;25.17;16.35;;;4.50;99.60;;;;;;4983352;28;20039;-91
2022/11/07 12:27:14;;;;;;;24.38;13.13;;;4.50;99.50;;;;;;5004281;28;20153;-92
2022/11/07 12:29:54;;;;;;;23.02;14.02;;;4.40;99.50;;;;;;5006330;28;20053;-91
2022/11/07 12:32:38;;;;;;;23.20;15.30;;;4.40;99.40;;;;;;5008542;28;20074;-92
2022/11/07 12:35:31;;;;;;;22.15;14.13;;;4.40;99.50;;;;;;5003498;28;20045;-90
2022/11/07 12:38:43;;;;;;;20.73;13.73;;;4.40;99.60;;;;;;5001466;28;20019;-91
2022/11/07 12:41:28;;;;;;;22.35;15.50;;;4.40;99.60;;;;;;4992367;28;20357;-92
2022/11/07 12:44:19;;;;;;;22.77;15.40;;;4.40;99.60;;;;;;4981243;28;20034;-93
2022/11/07 12:46:58;;;;;;;22.55;13.80;;;4.40;99.60;;;;;;4999498;28;20038;-91
2022/11/07 12:49:54;;;;;;;25.08;16.80;;;4.40;99.60;;;;;;5000567;28;20068;-90
2022/11/07 12:52:58;;;;;;;25.67;14.95;;;4.40;99.60;;;;;;5003041;28;20053;-91
2022/11/07 12:55:50;;;;;;;25.05;14.23;;;4.40;99.60;;;;;;5019229;28;20034;-91
2022/11/07 12:58:32;;;;;;;19.70;14.35;;;4.30;99.60;;;;;;4987917;28;20030;-90
2022/11/07 13:01:02;;;;;;;23.67;15.25;;;4.30;99.70;;;;;;5021689;28;20080;-93
2022/11/07 13:03:59;;;;;;;25.73;15.93;;;4.30;99.80;;;;;;5048131;28;20022;-92
2022/11/07 13:07:05;;;;;;;25.63;15.07;;;4.30;99.80;;;;;;5022287;28;20033;-91
2022/11/07 13:10:00;;;;;;;27.15;14.25;;;4.30;99.80;;;;;;4997012;28;20134;-92